sensor_id;sensor_type;location;lat;lon;timestamp;P1;durP1;ratioP1;P2;durP2;ratioP2
1178;SDS011;578;48.408;10.004;2022-10-23T00:01:17;14.30;;;10.50;;
1178;SDS011;578;48.408;10.004;2022-10-23T00:03:46;14.47;;;9.10;;
1178;SDS011;578;48.408;10.004;2022-10-23T00:06:15;16.07;;;10.33;;
1178;SDS011;578;48.408;10.004;2022-10-23T00:08:42;15.10;;;10.73;;
1178;SDS011;578;48.408;10.004;2022-10-23T00:11:13;10.27;;;8.87;;
1178;SDS011;578;48.408;10.004;2022-10-23T00:13:41;15.03;;;10.37;;
1178;SDS011;578;48.408;10.004;2022-10-23T00:16:08;11.80;;;9.00;;
1178;SDS011;578;48.408;10.004;2022-10-23T00:18:36;13.80;;;10.80;;
1178;SDS011;578;48.408;10.004;2022-10-23T00:21:03;14.93;;;9.40;;
1178;SDS011;578;48.408;10.004;2022-10-23T00:23:31;16.70;;;9.40;;
1178;SDS011;578;48.408;10.004;2022-10-23T00:25:57;11.17;;;9.10;;
1178;SDS011;578;48.408;10.004;2022-10-23T00:28:26;11.17;;;9.10;;
1178;SDS011;578;48.408;10.004;2022-10-23T00:30:52;12.50;;;9.37;;
1178;SDS011;578;48.408;10.004;2022-10-23T00:33:19;14.27;;;10.20;;
1178;SDS011;578;48.408;10.004;2022-10-23T00:35:46;11.03;;;9.87;;
1178;SDS011;578;48.408;10.004;2022-10-23T00:38:13;11.07;;;8.93;;
1178;SDS011;578;48.408;10.004;2022-10-23T00:40:39;9.90;;;8.90;;
1178;SDS011;578;48.408;10.004;2022-10-23T00:43:09;16.63;;;9.30;;
1178;SDS011;578;48.408;10.004;2022-10-23T00:45:44;11.53;;;9.57;;
1178;SDS011;578;48.408;10.004;2022-10-23T00:48:11;11.00;;;9.30;;
1178;SDS011;578;48.408;10.004;2022-10-23T00:50:38;12.60;;;9.17;;
1178;SDS011;578;48.408;10.004;2022-10-23T00:53:06;17.10;;;8.00;;
1178;SDS011;578;48.408;10.004;2022-10-23T00:55:35;10.97;;;8.33;;
1178;SDS011;578;48.408;10.004;2022-10-23T00:58:03;10.10;;;9.10;;
1178;SDS011;578;48.408;10.004;2022-10-23T01:00:38;12.20;;;10.20;;
1178;SDS011;578;48.408;10.004;2022-10-23T01:03:08;10.37;;;8.57;;
1178;SDS011;578;48.408;10.004;2022-10-23T01:05:46;12.20;;;9.53;;
1178;SDS011;578;48.408;10.004;2022-10-23T01:08:18;10.90;;;8.73;;
1178;SDS011;578;48.408;10.004;2022-10-23T01:10:51;13.40;;;9.20;;
1178;SDS011;578;48.408;10.004;2022-10-23T01:13:23;12.13;;;9.07;;
1178;SDS011;578;48.408;10.004;2022-10-23T01:15:57;12.83;;;9.37;;
1178;SDS011;578;48.408;10.004;2022-10-23T01:18:33;16.23;;;9.00;;
1178;SDS011;578;48.408;10.004;2022-10-23T01:21:05;15.43;;;8.43;;
1178;SDS011;578;48.408;10.004;2022-10-23T01:23:46;14.97;;;9.67;;
1178;SDS011;578;48.408;10.004;2022-10-23T01:26:30;10.03;;;8.30;;
1178;SDS011;578;48.408;10.004;2022-10-23T01:29:09;9.53;;;8.20;;
1178;SDS011;578;48.408;10.004;2022-10-23T01:31:42;10.10;;;8.63;;
1178;SDS011;578;48.408;10.004;2022-10-23T01:34:14;12.67;;;9.50;;
1178;SDS011;578;48.408;10.004;2022-10-23T01:36:46;16.00;;;10.20;;
1178;SDS011;578;48.408;10.004;2022-10-23T01:39:15;10.73;;;9.17;;
1178;SDS011;578;48.408;10.004;2022-10-23T01:41:47;10.60;;;9.40;;
1178;SDS011;578;48.408;10.004;2022-10-23T01:44:21;11.33;;;10.00;;
1178;SDS011;578;48.408;10.004;2022-10-23T01:46:51;10.67;;;9.60;;
1178;SDS011;578;48.408;10.004;2022-10-23T01:49:19;13.17;;;10.83;;
1178;SDS011;578;48.408;10.004;2022-10-23T01:51:48;10.93;;;9.80;;
1178;SDS011;578;48.408;10.004;2022-10-23T01:54:18;11.00;;;8.73;;
1178;SDS011;578;48.408;10.004;2022-10-23T01:56:47;11.57;;;9.13;;
1178;SDS011;578;48.408;10.004;2022-10-23T01:59:17;12.53;;;10.00;;
1178;SDS011;578;48.408;10.004;2022-10-23T02:01:50;11.90;;;10.17;;
1178;SDS011;578;48.408;10.004;2022-10-23T02:04:22;12.30;;;9.77;;
1178;SDS011;578;48.408;10.004;2022-10-23T02:06:53;12.07;;;10.17;;
1178;SDS011;578;48.408;10.004;2022-10-23T02:09:20;13.03;;;10.40;;
1178;SDS011;578;48.408;10.004;2022-10-23T02:11:49;10.67;;;9.37;;
1178;SDS011;578;48.408;10.004;2022-10-23T02:14:23;9.67;;;8.67;;
1178;SDS011;578;48.408;10.004;2022-10-23T02:16:57;14.13;;;10.80;;
1178;SDS011;578;48.408;10.004;2022-10-23T02:19:32;10.17;;;8.97;;
1178;SDS011;578;48.408;10.004;2022-10-23T02:22:07;9.67;;;8.40;;
1178;SDS011;578;48.408;10.004;2022-10-23T02:24:38;11.80;;;10.27;;
1178;SDS011;578;48.408;10.004;2022-10-23T02:27:10;13.00;;;9.50;;
1178;SDS011;578;48.408;10.004;2022-10-23T02:29:42;19.20;;;9.33;;
1178;SDS011;578;48.408;10.004;2022-10-23T02:32:11;11.80;;;10.50;;
1178;SDS011;578;48.408;10.004;2022-10-23T02:34:40;9.70;;;8.60;;
1178;SDS011;578;48.408;10.004;2022-10-23T02:37:07;10.23;;;9.13;;
1178;SDS011;578;48.408;10.004;2022-10-23T02:39:34;11.20;;;9.17;;
1178;SDS011;578;48.408;10.004;2022-10-23T02:42:02;8.90;;;8.00;;
1178;SDS011;578;48.408;10.004;2022-10-23T02:44:38;12.30;;;9.43;;
1178;SDS011;578;48.408;10.004;2022-10-23T02:47:16;14.07;;;11.30;;
1178;SDS011;578;48.408;10.004;2022-10-23T02:49:51;12.70;;;10.40;;
1178;SDS011;578;48.408;10.004;2022-10-23T02:52:26;12.90;;;10.40;;
1178;SDS011;578;48.408;10.004;2022-10-23T02:55:02;24.33;;;11.40;;
1178;SDS011;578;48.408;10.004;2022-10-23T02:57:36;19.97;;;10.40;;
1178;SDS011;578;48.408;10.004;2022-10-23T03:00:10;22.03;;;11.27;;
1178;SDS011;578;48.408;10.004;2022-10-23T03:02:40;12.17;;;10.33;;
1178;SDS011;578;48.408;10.004;2022-10-23T03:05:11;12.13;;;9.67;;
1178;SDS011;578;48.408;10.004;2022-10-23T03:07:41;15.20;;;10.77;;
1178;SDS011;578;48.408;10.004;2022-10-23T03:10:08;12.50;;;10.43;;
1178;SDS011;578;48.408;10.004;2022-10-23T03:12:36;11.93;;;10.30;;
1178;SDS011;578;48.408;10.004;2022-10-23T03:15:03;12.80;;;11.60;;
1178;SDS011;578;48.408;10.004;2022-10-23T03:17:31;16.10;;;10.47;;
1178;SDS011;578;48.408;10.004;2022-10-23T03:19:58;12.60;;;9.43;;
1178;SDS011;578;48.408;10.004;2022-10-23T03:22:25;13.57;;;9.67;;
1178;SDS011;578;48.408;10.004;2022-10-23T03:24:52;14.83;;;10.53;;
1178;SDS011;578;48.408;10.004;2022-10-23T03:27:18;14.93;;;10.97;;
1178;SDS011;578;48.408;10.004;2022-10-23T03:29:45;18.83;;;10.60;;
1178;SDS011;578;48.408;10.004;2022-10-23T03:32:12;18.13;;;10.23;;
1178;SDS011;578;48.408;10.004;2022-10-23T03:34:40;14.93;;;10.40;;
1178;SDS011;578;48.408;10.004;2022-10-23T03:37:07;13.80;;;10.13;;
1178;SDS011;578;48.408;10.004;2022-10-23T03:39:34;11.87;;;9.03;;
1178;SDS011;578;48.408;10.004;2022-10-23T03:42:00;10.43;;;9.33;;
1178;SDS011;578;48.408;10.004;2022-10-23T03:44:27;17.83;;;10.03;;
1178;SDS011;578;48.408;10.004;2022-10-23T03:46:55;14.47;;;8.73;;
1178;SDS011;578;48.408;10.004;2022-10-23T03:49:22;12.80;;;9.50;;
1178;SDS011;578;48.408;10.004;2022-10-23T03:51:50;12.90;;;9.63;;
1178;SDS011;578;48.408;10.004;2022-10-23T03:54:18;13.70;;;8.50;;
1178;SDS011;578;48.408;10.004;2022-10-23T03:56:45;12.70;;;9.67;;
1178;SDS011;578;48.408;10.004;2022-10-23T03:59:12;10.40;;;8.70;;
1178;SDS011;578;48.408;10.004;2022-10-23T04:01:39;11.00;;;8.63;;
1178;SDS011;578;48.408;10.004;2022-10-23T04:04:06;12.53;;;8.70;;
1178;SDS011;578;48.408;10.004;2022-10-23T04:06:33;12.60;;;9.83;;
1178;SDS011;578;48.408;10.004;2022-10-23T04:09:02;14.77;;;9.07;;
1178;SDS011;578;48.408;10.004;2022-10-23T04:11:29;10.80;;;8.53;;
1178;SDS011;578;48.408;10.004;2022-10-23T04:13:56;14.10;;;9.63;;
1178;SDS011;578;48.408;10.004;2022-10-23T04:16:22;11.40;;;9.20;;
1178;SDS011;578;48.408;10.004;2022-10-23T04:18:49;10.30;;;9.30;;
1178;SDS011;578;48.408;10.004;2022-10-23T04:21:16;13.47;;;9.80;;
1178;SDS011;578;48.408;10.004;2022-10-23T04:23:43;13.10;;;9.47;;
1178;SDS011;578;48.408;10.004;2022-10-23T04:26:11;12.03;;;9.17;;
1178;SDS011;578;48.408;10.004;2022-10-23T04:28:38;13.70;;;9.70;;
1178;SDS011;578;48.408;10.004;2022-10-23T04:31:05;14.60;;;9.73;;
1178;SDS011;578;48.408;10.004;2022-10-23T04:33:32;12.40;;;10.10;;
1178;SDS011;578;48.408;10.004;2022-10-23T04:35:59;23.63;;;10.77;;
1178;SDS011;578;48.408;10.004;2022-10-23T04:38:25;14.30;;;9.83;;
1178;SDS011;578;48.408;10.004;2022-10-23T04:40:52;12.00;;;9.40;;
1178;SDS011;578;48.408;10.004;2022-10-23T04:43:20;12.53;;;9.37;;
1178;SDS011;578;48.408;10.004;2022-10-23T04:45:47;9.67;;;8.07;;
1178;SDS011;578;48.408;10.004;2022-10-23T04:48:14;26.27;;;10.07;;
1178;SDS011;578;48.408;10.004;2022-10-23T04:50:41;15.87;;;10.50;;
1178;SDS011;578;48.408;10.004;2022-10-23T04:53:08;13.60;;;10.50;;
1178;SDS011;578;48.408;10.004;2022-10-23T04:55:35;42.67;;;13.70;;
1178;SDS011;578;48.408;10.004;2022-10-23T04:58:01;19.30;;;11.23;;
1178;SDS011;578;48.408;10.004;2022-10-23T05:00:29;13.27;;;10.43;;
1178;SDS011;578;48.408;10.004;2022-10-23T05:02:56;12.73;;;10.50;;
1178;SDS011;578;48.408;10.004;2022-10-23T05:05:23;10.40;;;9.30;;
1178;SDS011;578;48.408;10.004;2022-10-23T05:07:49;12.63;;;9.33;;
1178;SDS011;578;48.408;10.004;2022-10-23T05:10:16;12.27;;;9.93;;
1178;SDS011;578;48.408;10.004;2022-10-23T05:12:43;11.03;;;8.60;;
1178;SDS011;578;48.408;10.004;2022-10-23T05:15:10;14.03;;;9.50;;
1178;SDS011;578;48.408;10.004;2022-10-23T05:17:38;11.87;;;9.90;;
1178;SDS011;578;48.408;10.004;2022-10-23T05:20:09;10.00;;;8.10;;
1178;SDS011;578;48.408;10.004;2022-10-23T05:22:40;11.53;;;9.17;;
1178;SDS011;578;48.408;10.004;2022-10-23T05:25:09;9.23;;;7.80;;
1178;SDS011;578;48.408;10.004;2022-10-23T05:27:37;10.90;;;8.30;;
1178;SDS011;578;48.408;10.004;2022-10-23T05:30:04;11.47;;;8.77;;
1178;SDS011;578;48.408;10.004;2022-10-23T05:32:31;9.87;;;8.87;;
1178;SDS011;578;48.408;10.004;2022-10-23T05:35:02;9.27;;;8.30;;
1178;SDS011;578;48.408;10.004;2022-10-23T05:37:32;10.63;;;9.27;;
1178;SDS011;578;48.408;10.004;2022-10-23T05:40:00;10.73;;;9.10;;
1178;SDS011;578;48.408;10.004;2022-10-23T05:42:26;12.17;;;10.87;;
1178;SDS011;578;48.408;10.004;2022-10-23T05:44:53;8.80;;;7.90;;
1178;SDS011;578;48.408;10.004;2022-10-23T05:47:20;9.63;;;8.70;;
1178;SDS011;578;48.408;10.004;2022-10-23T05:49:46;11.20;;;9.70;;
1178;SDS011;578;48.408;10.004;2022-10-23T05:52:14;9.93;;;8.90;;
1178;SDS011;578;48.408;10.004;2022-10-23T05:54:43;9.70;;;8.60;;
1178;SDS011;578;48.408;10.004;2022-10-23T05:57:10;14.10;;;8.63;;
1178;SDS011;578;48.408;10.004;2022-10-23T05:59:37;11.40;;;10.20;;
1178;SDS011;578;48.408;10.004;2022-10-23T06:02:04;23.00;;;11.10;;
1178;SDS011;578;48.408;10.004;2022-10-23T06:04:30;14.50;;;10.07;;
1178;SDS011;578;48.408;10.004;2022-10-23T06:06:59;11.20;;;9.93;;
1178;SDS011;578;48.408;10.004;2022-10-23T06:09:27;12.43;;;10.30;;
1178;SDS011;578;48.408;10.004;2022-10-23T06:11:54;9.27;;;8.20;;
1178;SDS011;578;48.408;10.004;2022-10-23T06:14:21;11.13;;;9.40;;
1178;SDS011;578;48.408;10.004;2022-10-23T06:16:48;11.33;;;10.00;;
1178;SDS011;578;48.408;10.004;2022-10-23T06:19:15;10.33;;;9.23;;
1178;SDS011;578;48.408;10.004;2022-10-23T06:21:41;10.30;;;9.30;;
1178;SDS011;578;48.408;10.004;2022-10-23T06:24:08;9.77;;;8.60;;
1178;SDS011;578;48.408;10.004;2022-10-23T06:26:36;13.37;;;10.77;;
1178;SDS011;578;48.408;10.004;2022-10-23T06:29:03;11.50;;;9.53;;
1178;SDS011;578;48.408;10.004;2022-10-23T06:31:30;15.97;;;10.30;;
1178;SDS011;578;48.408;10.004;2022-10-23T06:33:57;12.90;;;10.87;;
1178;SDS011;578;48.408;10.004;2022-10-23T06:36:24;14.87;;;12.10;;
1178;SDS011;578;48.408;10.004;2022-10-23T06:38:51;11.60;;;10.40;;
1178;SDS011;578;48.408;10.004;2022-10-23T06:41:20;15.00;;;11.00;;
1178;SDS011;578;48.408;10.004;2022-10-23T06:43:49;12.77;;;11.47;;
1178;SDS011;578;48.408;10.004;2022-10-23T06:46:16;13.33;;;11.10;;
1178;SDS011;578;48.408;10.004;2022-10-23T06:48:44;12.80;;;11.47;;
1178;SDS011;578;48.408;10.004;2022-10-23T06:51:11;16.60;;;10.60;;
1178;SDS011;578;48.408;10.004;2022-10-23T06:53:40;16.60;;;10.70;;
1178;SDS011;578;48.408;10.004;2022-10-23T06:56:08;12.60;;;10.90;;
1178;SDS011;578;48.408;10.004;2022-10-23T06:58:36;14.40;;;11.73;;
1178;SDS011;578;48.408;10.004;2022-10-23T07:01:06;12.60;;;10.00;;
1178;SDS011;578;48.408;10.004;2022-10-23T07:03:34;20.80;;;13.03;;
1178;SDS011;578;48.408;10.004;2022-10-23T07:06:01;16.90;;;12.17;;
1178;SDS011;578;48.408;10.004;2022-10-23T07:08:29;31.30;;;12.13;;
1178;SDS011;578;48.408;10.004;2022-10-23T07:10:56;16.10;;;13.23;;
1178;SDS011;578;48.408;10.004;2022-10-23T07:13:23;15.97;;;12.77;;
1178;SDS011;578;48.408;10.004;2022-10-23T07:15:49;14.10;;;11.77;;
1178;SDS011;578;48.408;10.004;2022-10-23T07:18:18;14.10;;;12.17;;
1178;SDS011;578;48.408;10.004;2022-10-23T07:20:44;12.70;;;11.00;;
1178;SDS011;578;48.408;10.004;2022-10-23T07:23:13;23.90;;;11.00;;
1178;SDS011;578;48.408;10.004;2022-10-23T07:25:41;28.20;;;11.90;;
1178;SDS011;578;48.408;10.004;2022-10-23T07:28:07;13.60;;;10.60;;
1178;SDS011;578;48.408;10.004;2022-10-23T07:30:34;30.07;;;11.50;;
1178;SDS011;578;48.408;10.004;2022-10-23T07:33:01;20.70;;;11.80;;
1178;SDS011;578;48.408;10.004;2022-10-23T07:35:29;21.13;;;13.50;;
1178;SDS011;578;48.408;10.004;2022-10-23T07:37:57;14.47;;;11.10;;
1178;SDS011;578;48.408;10.004;2022-10-23T07:40:24;21.50;;;11.67;;
1178;SDS011;578;48.408;10.004;2022-10-23T07:42:51;12.57;;;10.07;;
1178;SDS011;578;48.408;10.004;2022-10-23T07:45:18;18.27;;;10.50;;
1178;SDS011;578;48.408;10.004;2022-10-23T07:47:48;31.93;;;10.70;;
1178;SDS011;578;48.408;10.004;2022-10-23T07:50:15;18.20;;;11.47;;
1178;SDS011;578;48.408;10.004;2022-10-23T07:52:44;24.67;;;19.70;;
1178;SDS011;578;48.408;10.004;2022-10-23T07:55:11;17.10;;;15.23;;
1178;SDS011;578;48.408;10.004;2022-10-23T07:57:37;11.73;;;10.07;;
1178;SDS011;578;48.408;10.004;2022-10-23T08:00:05;13.90;;;9.30;;
1178;SDS011;578;48.408;10.004;2022-10-23T08:02:32;39.97;;;10.83;;
1178;SDS011;578;48.408;10.004;2022-10-23T08:04:59;15.30;;;10.03;;
1178;SDS011;578;48.408;10.004;2022-10-23T08:07:26;12.83;;;9.23;;
1178;SDS011;578;48.408;10.004;2022-10-23T08:09:54;35.57;;;10.27;;
1178;SDS011;578;48.408;10.004;2022-10-23T08:12:20;20.53;;;9.70;;
1178;SDS011;578;48.408;10.004;2022-10-23T08:14:47;29.90;;;8.80;;
1178;SDS011;578;48.408;10.004;2022-10-23T08:17:14;9.20;;;6.87;;
1178;SDS011;578;48.408;10.004;2022-10-23T08:19:40;11.00;;;7.80;;
1178;SDS011;578;48.408;10.004;2022-10-23T08:22:10;9.67;;;7.43;;
1178;SDS011;578;48.408;10.004;2022-10-23T08:24:37;8.60;;;7.43;;
1178;SDS011;578;48.408;10.004;2022-10-23T08:27:05;9.33;;;7.60;;
1178;SDS011;578;48.408;10.004;2022-10-23T08:29:31;7.80;;;7.00;;
1178;SDS011;578;48.408;10.004;2022-10-23T08:31:58;16.90;;;9.33;;
1178;SDS011;578;48.408;10.004;2022-10-23T08:34:25;22.87;;;8.67;;
1178;SDS011;578;48.408;10.004;2022-10-23T08:36:52;24.97;;;7.33;;
1178;SDS011;578;48.408;10.004;2022-10-23T08:39:19;29.13;;;9.07;;
1178;SDS011;578;48.408;10.004;2022-10-23T08:41:47;12.80;;;6.90;;
1178;SDS011;578;48.408;10.004;2022-10-23T08:44:19;18.40;;;9.13;;
1178;SDS011;578;48.408;10.004;2022-10-23T08:46:52;11.93;;;8.07;;
1178;SDS011;578;48.408;10.004;2022-10-23T08:49:28;8.43;;;7.53;;
1178;SDS011;578;48.408;10.004;2022-10-23T08:52:02;15.73;;;8.27;;
1178;SDS011;578;48.408;10.004;2022-10-23T08:54:38;20.23;;;9.60;;
1178;SDS011;578;48.408;10.004;2022-10-23T08:57:15;16.40;;;7.63;;
1178;SDS011;578;48.408;10.004;2022-10-23T08:59:46;8.53;;;7.40;;
1178;SDS011;578;48.408;10.004;2022-10-23T09:02:16;9.17;;;8.00;;
1178;SDS011;578;48.408;10.004;2022-10-23T09:04:47;9.57;;;7.83;;
1178;SDS011;578;48.408;10.004;2022-10-23T09:07:19;9.60;;;8.10;;
1178;SDS011;578;48.408;10.004;2022-10-23T09:09:54;8.67;;;7.40;;
1178;SDS011;578;48.408;10.004;2022-10-23T09:12:33;10.33;;;7.77;;
1178;SDS011;578;48.408;10.004;2022-10-23T09:18:00;9.27;;;7.90;;
1178;SDS011;578;48.408;10.004;2022-10-23T09:20:36;7.43;;;6.73;;
1178;SDS011;578;48.408;10.004;2022-10-23T09:23:05;10.80;;;6.23;;
1178;SDS011;578;48.408;10.004;2022-10-23T09:25:39;8.03;;;6.53;;
1178;SDS011;578;48.408;10.004;2022-10-23T09:28:10;7.50;;;6.13;;
1178;SDS011;578;48.408;10.004;2022-10-23T09:30:44;7.70;;;6.90;;
1178;SDS011;578;48.408;10.004;2022-10-23T09:33:13;6.70;;;6.10;;
1178;SDS011;578;48.408;10.004;2022-10-23T09:35:51;7.83;;;7.03;;
1178;SDS011;578;48.408;10.004;2022-10-23T09:38:29;7.20;;;6.50;;
1178;SDS011;578;48.408;10.004;2022-10-23T09:40:58;8.03;;;7.23;;
1178;SDS011;578;48.408;10.004;2022-10-23T09:43:27;8.00;;;6.77;;
1178;SDS011;578;48.408;10.004;2022-10-23T09:45:59;7.30;;;6.60;;
1178;SDS011;578;48.408;10.004;2022-10-23T09:48:29;7.50;;;6.43;;
1178;SDS011;578;48.408;10.004;2022-10-23T09:50:56;7.70;;;7.00;;
1178;SDS011;578;48.408;10.004;2022-10-23T09:53:26;8.87;;;7.97;;
1178;SDS011;578;48.408;10.004;2022-10-23T09:55:58;7.90;;;6.90;;
1178;SDS011;578;48.408;10.004;2022-10-23T09:58:34;8.97;;;8.07;;
1178;SDS011;578;48.408;10.004;2022-10-23T10:01:03;8.23;;;7.33;;
1178;SDS011;578;48.408;10.004;2022-10-23T10:03:30;11.67;;;8.83;;
1178;SDS011;578;48.408;10.004;2022-10-23T10:05:58;8.70;;;7.77;;
1178;SDS011;578;48.408;10.004;2022-10-23T10:08:28;7.00;;;6.30;;
1178;SDS011;578;48.408;10.004;2022-10-23T10:11:04;7.43;;;6.53;;
1178;SDS011;578;48.408;10.004;2022-10-23T10:13:40;7.73;;;7.03;;
1178;SDS011;578;48.408;10.004;2022-10-23T10:16:22;6.10;;;5.50;;
1178;SDS011;578;48.408;10.004;2022-10-23T10:18:57;5.80;;;5.27;;
1178;SDS011;578;48.408;10.004;2022-10-23T10:21:31;5.53;;;5.03;;
1178;SDS011;578;48.408;10.004;2022-10-23T10:24:04;6.67;;;5.57;;
1178;SDS011;578;48.408;10.004;2022-10-23T10:26:37;6.73;;;6.00;;
1178;SDS011;578;48.408;10.004;2022-10-23T10:29:13;7.03;;;6.00;;
1178;SDS011;578;48.408;10.004;2022-10-23T10:31:53;6.67;;;5.80;;
1178;SDS011;578;48.408;10.004;2022-10-23T10:34:32;6.23;;;4.93;;
1178;SDS011;578;48.408;10.004;2022-10-23T10:37:11;5.27;;;4.57;;
1178;SDS011;578;48.408;10.004;2022-10-23T10:39:45;9.00;;;5.70;;
1178;SDS011;578;48.408;10.004;2022-10-23T10:42:24;9.17;;;5.93;;
1178;SDS011;578;48.408;10.004;2022-10-23T10:45:02;5.67;;;4.97;;
1178;SDS011;578;48.408;10.004;2022-10-23T10:47:45;6.50;;;5.90;;
1178;SDS011;578;48.408;10.004;2022-10-23T10:50:22;5.10;;;4.60;;
1178;SDS011;578;48.408;10.004;2022-10-23T10:52:56;6.50;;;6.00;;
1178;SDS011;578;48.408;10.004;2022-10-23T10:55:31;5.40;;;4.90;;
1178;SDS011;578;48.408;10.004;2022-10-23T10:58:03;5.73;;;4.80;;
1178;SDS011;578;48.408;10.004;2022-10-23T11:00:37;5.83;;;5.33;;
1178;SDS011;578;48.408;10.004;2022-10-23T11:03:08;5.57;;;5.07;;
1178;SDS011;578;48.408;10.004;2022-10-23T11:05:41;4.90;;;4.50;;
1178;SDS011;578;48.408;10.004;2022-10-23T11:08:11;5.73;;;5.23;;
1178;SDS011;578;48.408;10.004;2022-10-23T11:10:43;4.63;;;4.23;;
1178;SDS011;578;48.408;10.004;2022-10-23T11:13:16;5.30;;;4.57;;
1178;SDS011;578;48.408;10.004;2022-10-23T11:15:50;5.27;;;4.77;;
1178;SDS011;578;48.408;10.004;2022-10-23T11:18:23;4.77;;;4.37;;
1178;SDS011;578;48.408;10.004;2022-10-23T11:20:57;4.77;;;4.37;;
1178;SDS011;578;48.408;10.004;2022-10-23T11:26:40;4.73;;;4.33;;
1178;SDS011;578;48.408;10.004;2022-10-23T11:29:20;5.30;;;4.80;;
1178;SDS011;578;48.408;10.004;2022-10-23T11:32:13;4.30;;;4.00;;
1178;SDS011;578;48.408;10.004;2022-10-23T11:35:04;4.17;;;3.80;;
1178;SDS011;578;48.408;10.004;2022-10-23T11:37:39;7.27;;;4.13;;
1178;SDS011;578;48.408;10.004;2022-10-23T11:40:13;4.10;;;3.80;;
1178;SDS011;578;48.408;10.004;2022-10-23T11:42:46;4.10;;;3.80;;
1178;SDS011;578;48.408;10.004;2022-10-23T11:45:24;4.03;;;3.73;;
1178;SDS011;578;48.408;10.004;2022-10-23T11:47:55;5.20;;;4.77;;
1178;SDS011;578;48.408;10.004;2022-10-23T11:50:32;3.50;;;3.20;;
1178;SDS011;578;48.408;10.004;2022-10-23T11:53:22;3.50;;;3.20;;
1178;SDS011;578;48.408;10.004;2022-10-23T11:55:55;3.90;;;3.60;;
1178;SDS011;578;48.408;10.004;2022-10-23T11:58:24;5.03;;;4.03;;
1178;SDS011;578;48.408;10.004;2022-10-23T12:01:00;3.97;;;3.47;;
1178;SDS011;578;48.408;10.004;2022-10-23T12:03:40;4.80;;;3.50;;
1178;SDS011;578;48.408;10.004;2022-10-23T12:06:19;3.70;;;3.40;;
1178;SDS011;578;48.408;10.004;2022-10-23T12:08:50;3.67;;;3.37;;
1178;SDS011;578;48.408;10.004;2022-10-23T12:11:39;3.67;;;3.37;;
1178;SDS011;578;48.408;10.004;2022-10-23T12:14:27;3.43;;;3.13;;
1178;SDS011;578;48.408;10.004;2022-10-23T12:16:56;3.80;;;3.50;;
1178;SDS011;578;48.408;10.004;2022-10-23T12:19:24;3.73;;;3.43;;
1178;SDS011;578;48.408;10.004;2022-10-23T12:21:54;3.80;;;3.50;;
1178;SDS011;578;48.408;10.004;2022-10-23T12:27:24;2.87;;;2.67;;
1178;SDS011;578;48.408;10.004;2022-10-23T12:32:50;2.90;;;2.70;;
1178;SDS011;578;48.408;10.004;2022-10-23T12:35:30;3.20;;;2.80;;
1178;SDS011;578;48.408;10.004;2022-10-23T12:38:21;3.60;;;3.30;;
1178;SDS011;578;48.408;10.004;2022-10-23T12:40:50;3.77;;;3.47;;
1178;SDS011;578;48.408;10.004;2022-10-23T12:43:20;5.20;;;3.57;;
1178;SDS011;578;48.408;10.004;2022-10-23T12:45:51;9.90;;;3.73;;
1178;SDS011;578;48.408;10.004;2022-10-23T12:48:20;3.03;;;2.83;;
1178;SDS011;578;48.408;10.004;2022-10-23T12:50:48;4.30;;;3.30;;
1178;SDS011;578;48.408;10.004;2022-10-23T12:53:17;3.50;;;2.80;;
1178;SDS011;578;48.408;10.004;2022-10-23T12:55:46;4.37;;;2.87;;
1178;SDS011;578;48.408;10.004;2022-10-23T12:58:20;3.30;;;3.03;;
1178;SDS011;578;48.408;10.004;2022-10-23T13:00:51;4.00;;;3.20;;
1178;SDS011;578;48.408;10.004;2022-10-23T13:03:20;3.27;;;2.90;;
1178;SDS011;578;48.408;10.004;2022-10-23T13:05:48;3.23;;;2.90;;
1178;SDS011;578;48.408;10.004;2022-10-23T13:08:16;9.83;;;3.40;;
1178;SDS011;578;48.408;10.004;2022-10-23T13:10:45;4.00;;;2.57;;
1178;SDS011;578;48.408;10.004;2022-10-23T13:13:16;3.50;;;2.90;;
1178;SDS011;578;48.408;10.004;2022-10-23T13:15:46;3.97;;;2.80;;
1178;SDS011;578;48.408;10.004;2022-10-23T13:18:13;2.63;;;2.40;;
1178;SDS011;578;48.408;10.004;2022-10-23T13:20:41;3.60;;;2.60;;
1178;SDS011;578;48.408;10.004;2022-10-23T13:23:22;2.80;;;2.57;;
1178;SDS011;578;48.408;10.004;2022-10-23T13:25:53;4.03;;;2.83;;
1178;SDS011;578;48.408;10.004;2022-10-23T13:28:21;4.67;;;3.10;;
1178;SDS011;578;48.408;10.004;2022-10-23T13:31:03;3.37;;;2.87;;
1178;SDS011;578;48.408;10.004;2022-10-23T13:33:49;2.73;;;2.53;;
1178;SDS011;578;48.408;10.004;2022-10-23T13:36:28;2.43;;;2.23;;
1178;SDS011;578;48.408;10.004;2022-10-23T13:39:01;4.87;;;3.50;;
1178;SDS011;578;48.408;10.004;2022-10-23T13:41:35;4.30;;;2.80;;
1178;SDS011;578;48.408;10.004;2022-10-23T13:44:03;3.20;;;2.90;;
1178;SDS011;578;48.408;10.004;2022-10-23T13:46:30;3.20;;;2.90;;
1178;SDS011;578;48.408;10.004;2022-10-23T13:48:57;3.30;;;2.70;;
1178;SDS011;578;48.408;10.004;2022-10-23T13:51:24;3.23;;;3.00;;
1178;SDS011;578;48.408;10.004;2022-10-23T13:53:52;3.90;;;3.23;;
1178;SDS011;578;48.408;10.004;2022-10-23T13:56:21;3.60;;;2.80;;
1178;SDS011;578;48.408;10.004;2022-10-23T13:58:50;3.30;;;2.70;;
1178;SDS011;578;48.408;10.004;2022-10-23T14:01:19;3.13;;;2.83;;
1178;SDS011;578;48.408;10.004;2022-10-23T14:03:47;3.37;;;3.13;;
1178;SDS011;578;48.408;10.004;2022-10-23T14:06:14;4.03;;;3.17;;
1178;SDS011;578;48.408;10.004;2022-10-23T14:08:40;6.20;;;2.97;;
1178;SDS011;578;48.408;10.004;2022-10-23T14:11:08;3.40;;;3.10;;
1178;SDS011;578;48.408;10.004;2022-10-23T14:13:35;2.93;;;2.70;;
1178;SDS011;578;48.408;10.004;2022-10-23T14:16:03;5.13;;;2.77;;
1178;SDS011;578;48.408;10.004;2022-10-23T14:18:30;2.83;;;2.63;;
1178;SDS011;578;48.408;10.004;2022-10-23T14:21:01;6.20;;;2.77;;
1178;SDS011;578;48.408;10.004;2022-10-23T14:23:29;8.00;;;3.37;;
1178;SDS011;578;48.408;10.004;2022-10-23T14:26:00;4.23;;;3.30;;
1178;SDS011;578;48.408;10.004;2022-10-23T14:28:27;4.67;;;3.90;;
1178;SDS011;578;48.408;10.004;2022-10-23T14:30:54;4.93;;;4.33;;
1178;SDS011;578;48.408;10.004;2022-10-23T14:33:22;4.13;;;3.80;;
1178;SDS011;578;48.408;10.004;2022-10-23T14:35:49;4.73;;;4.33;;
1178;SDS011;578;48.408;10.004;2022-10-23T14:38:16;8.03;;;4.20;;
1178;SDS011;578;48.408;10.004;2022-10-23T14:40:42;7.17;;;4.23;;
1178;SDS011;578;48.408;10.004;2022-10-23T14:43:09;5.43;;;4.93;;
1178;SDS011;578;48.408;10.004;2022-10-23T14:45:36;4.33;;;3.60;;
1178;SDS011;578;48.408;10.004;2022-10-23T14:48:03;5.33;;;4.83;;
1178;SDS011;578;48.408;10.004;2022-10-23T14:50:32;4.33;;;3.93;;
1178;SDS011;578;48.408;10.004;2022-10-23T14:53:00;5.33;;;4.37;;
1178;SDS011;578;48.408;10.004;2022-10-23T14:55:27;4.30;;;3.90;;
1178;SDS011;578;48.408;10.004;2022-10-23T14:57:55;5.13;;;4.40;;
1178;SDS011;578;48.408;10.004;2022-10-23T15:00:22;4.17;;;3.77;;
1178;SDS011;578;48.408;10.004;2022-10-23T15:02:49;3.27;;;2.50;;
1178;SDS011;578;48.408;10.004;2022-10-23T15:05:16;6.83;;;4.00;;
1178;SDS011;578;48.408;10.004;2022-10-23T15:07:44;3.67;;;3.37;;
1178;SDS011;578;48.408;10.004;2022-10-23T15:10:11;3.63;;;3.20;;
1178;SDS011;578;48.408;10.004;2022-10-23T15:12:37;3.67;;;3.33;;
1178;SDS011;578;48.408;10.004;2022-10-23T15:15:05;3.37;;;3.07;;
1178;SDS011;578;48.408;10.004;2022-10-23T15:17:33;3.10;;;2.80;;
1178;SDS011;578;48.408;10.004;2022-10-23T15:20:01;3.20;;;2.67;;
1178;SDS011;578;48.408;10.004;2022-10-23T15:22:28;3.30;;;3.00;;
1178;SDS011;578;48.408;10.004;2022-10-23T15:24:56;2.70;;;2.20;;
1178;SDS011;578;48.408;10.004;2022-10-23T15:27:23;4.30;;;3.03;;
1178;SDS011;578;48.408;10.004;2022-10-23T15:29:50;4.47;;;3.37;;
1178;SDS011;578;48.408;10.004;2022-10-23T15:32:17;3.40;;;2.70;;
1178;SDS011;578;48.408;10.004;2022-10-23T15:34:44;6.33;;;3.60;;